WADDWAAA

Guest
Details From WADD - Denpasar Ngurah Rai Intl
To WAAA - Ujung Pandang Hasanuddin
Flight Number -
Tags decoded
Created
Modified
Stats Distance 343 nm / 635 km
Max Altitude 0 ft / 0 m
Waypoints 3
Social Downloads 2
Likes 0
Share VATSIM

Download

Looking for another format? Having issues loading an existing format? Contact us
Advertisement - Login to hide

Notes

Requested: WADD PEDET LIPOT WAAA Unmatched points: PEDET

Route

WADD LIPOT WAAA

ID Type Via Altitude Latitude Longitude Leg Dist Tot Dist Heading (true) Name
O WADD APT - 0 ft / 0 m -8.74817˚ 115.16717˚ - 0 nm - Denpasar Ngurah Rai Intl
LIPOT FIX - 0 ft / 0 m -6.68089˚ 117.62993˚ 192 nm 192 nm 50° / 50° -
O WAAA APT - 0 ft / 0 m -5.06163˚ 119.55404˚ 150 nm 342 nm 50° / 50° Ujung Pandang Hasanuddin

Altitude Profile

Advertisement - Login to hide

Weather


0- 5 10 15 20 25 30 35+ Temperature / ° C

Clouds and Precipitation
Forecast for 2017-12-16 18:00 UTC. Updated 2 hours ago

Ground ~20,000 ft ~40,000 ft Winds

WADD

Details ICAO WADD (DPS)
Name Denpasar Ngurah Rai Intl
Region Indonesia
Timezone Asia/Makassar (UTC+8.0)
Stats Elevation 14 ft / 4 m (AMSL)
Location -8.748169° 115.167174°
Runways 1
Magnetic Variation 1.055° E

METAR

WADD 161430Z VRB01KT 9999 FEW016CB FEW017 27/25 Q1010 NOSIG RMK CB TO NW

Decode

TAF

TAF WADD 160500Z 1606/1706 26010KT 9999 SCT016 TEMPO 1612/1616 5000 -TSRA FEW015CB BKN016 BECMG 1613/1615 VRB05KT BECMG 1623/1701 28010KT

Decode

Departure Runways

ID Width Length Bearing (true) Bearing (mag) Surface Threshold Offset Overrun Length
09 148 ft / 45 m 9,779 ft / 2,981 m 87.71° 86.65° Asphalt 121 ft / 37 m 75 ft / 23 m
27 148 ft / 45 m 9,779 ft / 2,981 m 267.70° 266.64° Asphalt 0 ft / 0 m 197 ft / 60 m

WAAA

Details ICAO WAAA (UPG)
Name Ujung Pandang Hasanuddin
Region Indonesia
Timezone Asia/Makassar (UTC+8.0)
Stats Elevation 47 ft / 14 m (AMSL)
Location -5.061630° 119.554043°
Runways 1
Magnetic Variation 0.851° E

METAR

WAAA 161430Z 08003KT 8000 FEW018 25/24 Q1011 NOSIG

Decode

TAF

Not found

Destination Runways

ID Width Length Bearing (true) Bearing (mag) Surface Threshold Offset Overrun Length
13 148 ft / 45 m 8,214 ft / 2,504 m 130.71° 129.86° Asphalt 0 ft / 0 m 200 ft / 61 m
31 148 ft / 45 m 8,214 ft / 2,504 m 310.71° 309.86° Asphalt 0 ft / 0 m 200 ft / 61 m

Approach Navaids

Runway Type Ident Frequency Range Bearing (true) Bearing (mag) Slope Elevation
13 Localiser IUPG 111.30 MHz 18 nm / 33 km 130.67° 129.82° - 36 ft / 11 m (AMSL)
13 Glidescope IUPG 111.30 MHz 10 nm / 19 km 130.71° 129.86° 2.90° 44 ft / 13 m (AMSL)
13 DME IUPG 111.30 MHz 18 nm / 33 km - - - 36 ft / 11 m (AMSL)
31 Localiser IMKS 111.30 MHz 18 nm / 33 km 310.71° 309.86° - 44 ft / 13 m (AMSL)
31 Glidescope IMKS 111.30 MHz 10 nm / 19 km 310.71° 309.86° 3.00° 36 ft / 11 m (AMSL)
31 DME IMKS 111.30 MHz 18 nm / 33 km - - - 36 ft / 11 m (AMSL)

Popular Alternatives